Time;durP1;ratioP1;P1;durP2;ratioP2;P2;SDS_P1;SDS_P2;PMS_P1;PMS_P2;Temp;Humidity;BMP_temperature;BMP_pressure;BME280_temperature;BME280_humidity;BME280_pressure;Samples;Min_cycle;Max_cycle;Signal;HPM_P1;HPM_P2
2022/04/09 00:00:46;;;;;;;7.05;3.40;;;;;;;;;;5013023;28;20042;-77
2022/04/09 00:03:12;;;;;;;5.90;3.47;;;;;;;;;;5010377;28;20026;-78
2022/04/09 00:05:38;;;;;;;7.90;3.50;;;;;;;;;;5009066;28;20028;-78
2022/04/09 00:08:04;;;;;;;6.70;3.60;;;;;;;;;;5010017;28;20040;-78
2022/04/09 00:10:30;;;;;;;6.20;3.50;;;;;;;;;;5007344;28;20049;-79
2022/04/09 00:12:56;;;;;;;8.38;3.22;;;;;;;;;;5016463;28;20026;-79
2022/04/09 00:15:22;;;;;;;12.05;3.60;;;;;;;;;;5011311;28;20076;-79
2022/04/09 00:17:48;;;;;;;8.98;3.33;;;;;;;;;;5006300;28;20460;-78
2022/04/09 00:20:15;;;;;;;5.47;2.80;;;;;;;;;;5012077;28;20113;-78
2022/04/09 00:22:41;;;;;;;7.60;3.15;;;;;;;;;;5014425;28;20057;-79
2022/04/09 00:25:09;;;;;;;9.68;3.55;;;;;;;;;;5014684;28;20476;-77
2022/04/09 00:27:35;;;;;;;6.82;3.08;;;;;;;;;;5015122;28;20059;-78
2022/04/09 00:30:01;;;;;;;5.50;3.03;;;;;;;;;;5016215;28;20022;-78
2022/04/09 00:32:27;;;;;;;9.95;2.80;;;;;;;;;;5022554;28;20060;-78
2022/04/09 00:34:53;;;;;;;9.25;3.20;;;;;;;;;;5019731;28;20057;-77
2022/04/09 00:37:19;;;;;;;6.40;3.45;;;;;;;;;;5015778;28;20236;-79
2022/04/09 00:39:45;;;;;;;6.65;2.90;;;;;;;;;;5021572;28;20030;-79
2022/04/09 00:42:14;;;;;;;8.02;3.72;;;;;;;;;;5018977;28;20058;-79
2022/04/09 00:44:40;;;;;;;9.85;3.25;;;;;;;;;;5012926;28;20048;-79
2022/04/09 00:47:07;;;;;;;7.38;2.95;;;;;;;;;;5018657;28;20665;-79
2022/04/09 00:49:33;;;;;;;4.95;2.85;;;;;;;;;;5015299;28;20116;-79
2022/04/09 00:52:00;;;;;;;7.78;3.05;;;;;;;;;;5015068;28;20487;-78
2022/04/09 00:54:27;;;;;;;6.32;2.72;;;;;;;;;;5015933;28;20030;-78
2022/04/09 00:56:54;;;;;;;8.65;2.95;;;;;;;;;;5011179;28;20069;-78
2022/04/09 00:59:26;;;;;;;6.10;2.55;;;;;;;;;;5012217;28;20034;-77
2022/04/09 01:01:59;;;;;;;5.60;2.53;;;;;;;;;;5011557;28;20022;-78
2022/04/09 01:04:25;;;;;;;7.07;2.70;;;;;;;;;;5014660;28;20029;-78
2022/04/09 01:06:52;;;;;;;7.80;2.60;;;;;;;;;;5010201;28;20037;-78
2022/04/09 01:09:18;;;;;;;6.00;2.25;;;;;;;;;;5014026;28;20041;-79
2022/04/09 01:11:44;;;;;;;7.13;3.08;;;;;;;;;;5013848;28;20024;-79
2022/04/09 01:14:13;;;;;;;5.07;2.70;;;;;;;;;;5011499;28;20025;-78
2022/04/09 01:16:40;;;;;;;6.57;2.72;;;;;;;;;;5012124;28;20033;-78
2022/04/09 01:19:05;;;;;;;6.15;2.58;;;;;;;;;;5012719;28;20560;-78
2022/04/09 01:21:32;;;;;;;8.40;2.63;;;;;;;;;;5013528;28;20117;-78
2022/04/09 01:23:59;;;;;;;7.07;2.58;;;;;;;;;;5010717;28;20764;-78
2022/04/09 01:26:25;;;;;;;8.13;2.50;;;;;;;;;;5011700;28;20552;-78
2022/04/09 01:28:51;;;;;;;8.48;2.60;;;;;;;;;;5011898;28;20392;-78
2022/04/09 01:31:17;;;;;;;8.32;2.97;;;;;;;;;;5008309;28;20026;-78
2022/04/09 01:33:44;;;;;;;8.35;2.42;;;;;;;;;;5011103;28;20062;-78
2022/04/09 01:36:10;;;;;;;8.38;2.30;;;;;;;;;;5014793;28;20037;-78
2022/04/09 01:38:36;;;;;;;5.80;2.60;;;;;;;;;;5019950;28;20485;-77
2022/04/09 01:41:03;;;;;;;10.65;2.60;;;;;;;;;;5022029;28;20112;-79
2022/04/09 01:43:29;;;;;;;5.55;2.35;;;;;;;;;;5010939;28;20061;-79
2022/04/09 01:45:55;;;;;;;9.43;2.70;;;;;;;;;;5011060;28;20061;-78
2022/04/09 01:48:21;;;;;;;11.40;2.10;;;;;;;;;;5020360;28;20563;-78
2022/04/09 01:50:47;;;;;;;3.65;2.05;;;;;;;;;;5009016;28;20045;-77
2022/04/09 01:53:13;;;;;;;6.45;2.10;;;;;;;;;;5009766;28;20025;-78
2022/04/09 01:55:39;;;;;;;9.25;2.25;;;;;;;;;;5012882;28;20502;-77
2022/04/09 01:58:05;;;;;;;7.15;2.08;;;;;;;;;;5011544;28;20109;-77
2022/04/09 02:00:31;;;;;;;10.32;2.40;;;;;;;;;;5013064;28;20025;-77
2022/04/09 02:02:57;;;;;;;4.68;2.17;;;;;;;;;;5010197;28;20026;-78
2022/04/09 02:05:24;;;;;;;6.45;2.20;;;;;;;;;;5014428;28;20575;-77
2022/04/09 02:07:51;;;;;;;7.20;2.47;;;;;;;;;;5009830;28;20065;-77
2022/04/09 02:10:17;;;;;;;4.25;2.10;;;;;;;;;;5010768;28;20030;-78
2022/04/09 02:12:44;;;;;;;5.55;2.38;;;;;;;;;;5009925;28;20104;-78
2022/04/09 02:15:14;;;;;;;4.78;2.28;;;;;;;;;;5009960;28;20046;-77
2022/04/09 02:17:41;;;;;;;5.95;2.33;;;;;;;;;;5009535;28;20018;-77
2022/04/09 02:20:08;;;;;;;8.35;2.40;;;;;;;;;;5011497;28;20034;-78
2022/04/09 02:22:37;;;;;;;8.52;2.88;;;;;;;;;;5010404;28;20034;-78
2022/04/09 02:25:03;;;;;;;8.85;3.00;;;;;;;;;;5028487;28;20096;-79
2022/04/09 02:27:29;;;;;;;4.13;2.28;;;;;;;;;;5009478;28;20037;-78
2022/04/09 02:29:55;;;;;;;7.75;2.50;;;;;;;;;;5012985;28;20040;-78
2022/04/09 02:32:21;;;;;;;7.45;2.60;;;;;;;;;;5018080;28;20029;-78
2022/04/09 02:34:49;;;;;;;9.38;2.63;;;;;;;;;;5009736;28;20380;-78
2022/04/09 02:37:15;;;;;;;7.63;2.40;;;;;;;;;;5010578;28;20500;-78
2022/04/09 02:39:42;;;;;;;6.20;2.60;;;;;;;;;;5010949;28;20022;-78
2022/04/09 02:42:08;;;;;;;8.13;2.50;;;;;;;;;;5007944;28;20037;-77
2022/04/09 02:44:34;;;;;;;4.47;2.53;;;;;;;;;;5014406;28;20796;-77
2022/04/09 02:47:00;;;;;;;5.35;2.28;;;;;;;;;;5009655;28;20026;-78
2022/04/09 02:49:26;;;;;;;6.07;2.65;;;;;;;;;;5010565;28;20034;-78
2022/04/09 02:51:52;;;;;;;8.00;2.97;;;;;;;;;;5011396;28;20436;-79
2022/04/09 02:54:18;;;;;;;6.20;2.63;;;;;;;;;;5009911;28;20029;-78
2022/04/09 02:56:44;;;;;;;6.90;2.97;;;;;;;;;;5008545;28;20037;-78
2022/04/09 02:59:12;;;;;;;8.20;2.75;;;;;;;;;;5013106;28;20036;-78
2022/04/09 03:01:38;;;;;;;6.88;2.83;;;;;;;;;;5016155;28;20022;-78
2022/04/09 03:04:04;;;;;;;8.18;3.05;;;;;;;;;;5011790;28;20060;-78
2022/04/09 03:06:29;;;;;;;4.45;2.47;;;;;;;;;;5007850;28;20030;-78
2022/04/09 03:08:55;;;;;;;5.03;2.45;;;;;;;;;;5007703;28;20104;-78
2022/04/09 03:11:21;;;;;;;7.80;2.53;;;;;;;;;;5009301;28;20041;-78
2022/04/09 03:13:48;;;;;;;6.70;3.00;;;;;;;;;;5018813;28;20046;-78
2022/04/09 03:16:14;;;;;;;8.70;2.97;;;;;;;;;;5013593;28;20037;-77
2022/04/09 03:18:40;;;;;;;10.02;3.15;;;;;;;;;;5009130;28;20084;-79
2022/04/09 03:21:06;;;;;;;8.23;2.97;;;;;;;;;;5011045;28;20116;-77
2022/04/09 03:23:32;;;;;;;7.93;2.65;;;;;;;;;;5013193;28;20053;-78
2022/04/09 03:25:58;;;;;;;8.55;2.83;;;;;;;;;;5010024;28;20026;-78
2022/04/09 03:28:24;;;;;;;6.20;2.85;;;;;;;;;;5010148;28;20112;-77
2022/04/09 03:30:50;;;;;;;11.95;3.00;;;;;;;;;;5014697;28;20030;-78
2022/04/09 03:33:16;;;;;;;10.57;3.15;;;;;;;;;;5009207;28;20526;-78
2022/04/09 03:35:42;;;;;;;7.03;2.88;;;;;;;;;;5009398;28;20038;-78
2022/04/09 03:38:12;;;;;;;7.20;2.78;;;;;;;;;;5014924;28;20527;-78
2022/04/09 03:40:38;;;;;;;8.15;2.80;;;;;;;;;;5012764;28;20033;-78
2022/04/09 03:43:04;;;;;;;8.52;2.60;;;;;;;;;;5018114;28;20038;-77
2022/04/09 03:45:30;;;;;;;10.18;3.05;;;;;;;;;;5009122;28;20039;-78
2022/04/09 03:47:56;;;;;;;6.88;2.58;;;;;;;;;;5009406;28;20083;-77
2022/04/09 03:50:22;;;;;;;9.13;3.08;;;;;;;;;;5008283;28;20484;-78
2022/04/09 03:52:51;;;;;;;13.13;3.55;;;;;;;;;;5008521;28;20487;-78
2022/04/09 03:55:17;;;;;;;11.82;3.67;;;;;;;;;;5008871;28;20089;-77
2022/04/09 03:57:43;;;;;;;7.72;2.85;;;;;;;;;;5015551;28;20049;-78
2022/04/09 04:00:10;;;;;;;8.45;2.97;;;;;;;;;;5012436;28;20034;-78
2022/04/09 04:02:36;;;;;;;7.60;3.00;;;;;;;;;;5013088;28;20648;-78
2022/04/09 04:05:03;;;;;;;3.50;2.70;;;;;;;;;;5018361;28;20559;-78
2022/04/09 04:07:30;;;;;;;7.03;3.03;;;;;;;;;;5011545;28;20080;-78
2022/04/09 04:09:56;;;;;;;7.75;3.05;;;;;;;;;;5011280;28;20053;-78
2022/04/09 04:12:24;;;;;;;9.98;3.85;;;;;;;;;;5012209;28;20026;-77
2022/04/09 04:14:49;;;;;;;7.93;2.90;;;;;;;;;;5011690;28;20117;-78
2022/04/09 04:17:15;;;;;;;8.23;3.25;;;;;;;;;;5010454;28;20109;-78
2022/04/09 04:19:41;;;;;;;10.30;2.90;;;;;;;;;;5013460;28;20021;-78
2022/04/09 04:22:08;;;;;;;5.70;3.00;;;;;;;;;;5011974;28;20034;-78
2022/04/09 04:24:37;;;;;;;10.82;4.35;;;;;;;;;;5011489;28;20018;-78
2022/04/09 04:27:03;;;;;;;7.63;3.15;;;;;;;;;;5010422;28;20049;-78
2022/04/09 04:29:29;;;;;;;8.60;3.00;;;;;;;;;;5013720;28;20143;-77
2022/04/09 04:31:55;;;;;;;9.43;3.17;;;;;;;;;;5010706;28;20030;-78
2022/04/09 04:34:20;;;;;;;9.57;2.80;;;;;;;;;;5011804;28;20021;-78
2022/04/09 04:36:46;;;;;;;8.95;3.08;;;;;;;;;;5021594;28;20124;-78
2022/04/09 04:39:35;;;;;;;11.25;2.90;;;;;;;;;;5012178;28;20080;-78
2022/04/09 04:42:01;;;;;;;10.43;3.15;;;;;;;;;;5012307;28;20021;-77
2022/04/09 04:44:27;;;;;;;9.30;3.28;;;;;;;;;;5011517;28;20029;-77
2022/04/09 04:46:53;;;;;;;8.32;3.05;;;;;;;;;;5011065;28;20488;-77
2022/04/09 04:49:19;;;;;;;9.32;3.97;;;;;;;;;;5012779;28;20345;-77
2022/04/09 04:51:45;;;;;;;9.82;3.42;;;;;;;;;;5011881;28;20056;-78
2022/04/09 04:54:11;;;;;;;8.73;3.00;;;;;;;;;;5010813;28;20037;-77
2022/04/09 04:56:37;;;;;;;7.15;3.13;;;;;;;;;;5011485;28;20022;-77
2022/04/09 04:59:02;;;;;;;10.10;3.05;;;;;;;;;;5016141;28;20022;-77
2022/04/09 05:01:28;;;;;;;10.15;2.92;;;;;;;;;;5013035;28;20034;-78
2022/04/09 05:03:54;;;;;;;10.55;3.25;;;;;;;;;;5014165;28;20030;-78
2022/04/09 05:06:21;;;;;;;7.47;2.92;;;;;;;;;;5009419;28;20025;-78
2022/04/09 05:08:47;;;;;;;13.73;3.33;;;;;;;;;;5008899;28;20130;-77
2022/04/09 05:11:13;;;;;;;12.95;3.30;;;;;;;;;;5013434;28;20640;-77
2022/04/09 05:13:38;;;;;;;9.63;3.30;;;;;;;;;;5016633;28;20024;-78
2022/04/09 05:16:05;;;;;;;11.88;3.45;;;;;;;;;;5011903;28;21449;-77
2022/04/09 05:18:32;;;;;;;9.05;3.38;;;;;;;;;;5018436;28;20026;-78
2022/04/09 05:20:58;;;;;;;10.30;3.58;;;;;;;;;;5011405;28;20064;-78
2022/04/09 05:23:24;;;;;;;6.30;3.40;;;;;;;;;;5018001;28;20112;-78
2022/04/09 05:25:50;;;;;;;10.25;3.38;;;;;;;;;;5013949;28;20120;-78
2022/04/09 05:28:16;;;;;;;6.95;3.05;;;;;;;;;;5010861;28;20711;-78
2022/04/09 05:30:44;;;;;;;10.57;3.47;;;;;;;;;;5010012;28;20423;-78
2022/04/09 05:33:11;;;;;;;11.77;5.28;;;;;;;;;;5011776;28;20036;-78
2022/04/09 05:35:37;;;;;;;10.85;4.30;;;;;;;;;;5009799;28;20028;-78
2022/04/09 05:38:03;;;;;;;14.05;5.80;;;;;;;;;;5013811;28;20384;-78
2022/04/09 05:40:29;;;;;;;11.20;4.85;;;;;;;;;;5010719;28;20025;-77
2022/04/09 05:42:55;;;;;;;10.45;3.13;;;;;;;;;;5014667;28;20535;-78
2022/04/09 05:45:21;;;;;;;12.43;3.60;;;;;;;;;;5010134;28;20041;-77
2022/04/09 05:47:48;;;;;;;8.75;3.08;;;;;;;;;;5008382;28;20034;-78
2022/04/09 05:50:14;;;;;;;11.85;3.35;;;;;;;;;;5009819;28;20100;-78
2022/04/09 05:52:41;;;;;;;8.45;2.70;;;;;;;;;;5009503;28;20049;-78
2022/04/09 05:55:07;;;;;;;7.55;2.67;;;;;;;;;;5006760;28;20041;-78
2022/04/09 05:57:33;;;;;;;11.98;3.08;;;;;;;;;;5011498;28;20062;-79
2022/04/09 05:59:59;;;;;;;10.60;3.13;;;;;;;;;;5010106;28;20026;-79
2022/04/09 06:02:25;;;;;;;7.65;3.17;;;;;;;;;;5010767;28;20109;-79
2022/04/09 06:04:51;;;;;;;13.15;3.45;;;;;;;;;;5011793;28;20033;-79
2022/04/09 06:07:17;;;;;;;10.70;3.40;;;;;;;;;;5009408;28;20524;-78
2022/04/09 06:09:43;;;;;;;7.63;3.10;;;;;;;;;;5008944;28;20045;-78
2022/04/09 06:12:10;;;;;;;5.53;2.60;;;;;;;;;;5013864;28;20041;-79
2022/04/09 06:14:36;;;;;;;6.85;2.88;;;;;;;;;;5011535;28;20025;-74
2022/04/09 06:17:02;;;;;;;12.32;3.58;;;;;;;;;;5017911;28;20028;-73
2022/04/09 06:19:29;;;;;;;9.93;3.67;;;;;;;;;;5015703;28;20025;-73
2022/04/09 06:21:56;;;;;;;10.43;3.63;;;;;;;;;;5009780;28;20049;-74
2022/04/09 06:24:21;;;;;;;13.80;3.22;;;;;;;;;;5016177;28;20022;-73
2022/04/09 06:26:47;;;;;;;8.70;3.17;;;;;;;;;;5008745;28;20026;-73
2022/04/09 06:29:13;;;;;;;9.07;3.58;;;;;;;;;;5009757;28;20656;-73
2022/04/09 06:31:39;;;;;;;15.70;3.33;;;;;;;;;;5009768;28;20044;-73
2022/04/09 06:34:05;;;;;;;10.77;3.40;;;;;;;;;;5014234;28;20022;-80
2022/04/09 06:36:31;;;;;;;9.85;3.30;;;;;;;;;;5012237;28;20425;-79
2022/04/09 06:38:57;;;;;;;8.35;3.58;;;;;;;;;;5003760;28;20079;-79
2022/04/09 06:41:25;;;;;;;11.13;3.47;;;;;;;;;;5004275;28;20022;-80
2022/04/09 06:43:52;;;;;;;5.93;2.85;;;;;;;;;;5008305;28;20034;-81
2022/04/09 06:46:18;;;;;;;7.25;2.83;;;;;;;;;;5007932;28;20034;-78
2022/04/09 06:48:44;;;;;;;17.38;3.40;;;;;;;;;;5007171;28;20036;-79
2022/04/09 06:51:10;;;;;;;9.05;3.10;;;;;;;;;;5008082;28;20029;-80
2022/04/09 06:53:38;;;;;;;18.38;3.10;;;;;;;;;;5007361;28;20025;-79
2022/04/09 06:56:04;;;;;;;9.85;2.63;;;;;;;;;;5007705;28;20038;-79
2022/04/09 06:58:30;;;;;;;10.23;2.78;;;;;;;;;;5007621;28;20076;-80
2022/04/09 07:00:56;;;;;;;11.63;2.95;;;;;;;;;;5004283;28;20128;-80
2022/04/09 07:03:22;;;;;;;14.27;3.38;;;;;;;;;;5007289;28;20026;-80
2022/04/09 07:05:48;;;;;;;10.77;3.05;;;;;;;;;;5005110;28;20026;-79
2022/04/09 07:08:14;;;;;;;12.35;3.30;;;;;;;;;;5005676;28;20516;-78
2022/04/09 07:10:40;;;;;;;14.50;3.67;;;;;;;;;;5007082;28;20175;-74
2022/04/09 07:13:06;;;;;;;13.70;2.78;;;;;;;;;;5007202;28;20029;-74
2022/04/09 07:15:32;;;;;;;12.70;3.50;;;;;;;;;;5004603;28;20037;-74
2022/04/09 07:17:58;;;;;;;10.70;3.00;;;;;;;;;;5005506;28;20040;-75
2022/04/09 07:20:24;;;;;;;16.42;3.45;;;;;;;;;;5007105;28;20659;-75
2022/04/09 07:22:50;;;;;;;15.93;3.28;;;;;;;;;;5007324;28;20029;-73
2022/04/09 07:25:16;;;;;;;12.20;3.10;;;;;;;;;;5005426;28;20033;-75
2022/04/09 07:27:47;;;;;;;9.93;2.97;;;;;;;;;;5006256;28;20057;-74
2022/04/09 07:30:17;;;;;;;8.60;2.80;;;;;;;;;;5005318;28;20034;-73
2022/04/09 07:32:43;;;;;;;6.43;3.23;;;;;;;;;;5003316;28;20018;-74
2022/04/09 07:35:11;;;;;;;9.30;2.88;;;;;;;;;;5003790;28;20026;-74
2022/04/09 07:37:40;;;;;;;9.55;3.42;;;;;;;;;;5004553;28;20030;-73
2022/04/09 07:40:07;;;;;;;8.75;3.13;;;;;;;;;;5005346;28;20539;-75
2022/04/09 07:42:33;;;;;;;9.35;2.97;;;;;;;;;;5005382;28;20141;-75
2022/04/09 07:44:59;;;;;;;10.77;2.80;;;;;;;;;;4998624;28;20026;-73
2022/04/09 07:47:25;;;;;;;12.50;2.78;;;;;;;;;;5003337;28;20179;-80
2022/04/09 07:49:51;;;;;;;11.23;3.08;;;;;;;;;;4995308;28;20045;-73
2022/04/09 07:52:17;;;;;;;13.77;3.30;;;;;;;;;;5001145;28;20026;-75
2022/04/09 07:54:43;;;;;;;8.95;2.53;;;;;;;;;;4998128;28;20103;-76
2022/04/09 07:57:09;;;;;;;11.05;3.33;;;;;;;;;;4997659;28;20233;-77
2022/04/09 07:59:35;;;;;;;11.38;3.13;;;;;;;;;;5006374;28;20033;-76
2022/04/09 08:02:01;;;;;;;9.20;3.13;;;;;;;;;;5001571;28;20022;-76
2022/04/09 08:04:27;;;;;;;12.32;2.95;;;;;;;;;;5005269;28;20021;-76
2022/04/09 08:06:53;;;;;;;13.48;2.95;;;;;;;;;;5006299;28;20030;-78
2022/04/09 08:09:19;;;;;;;14.15;2.92;;;;;;;;;;5007742;28;20137;-78
2022/04/09 08:11:45;;;;;;;11.40;3.17;;;;;;;;;;5005662;28;20088;-78
2022/04/09 08:14:11;;;;;;;8.93;3.10;;;;;;;;;;5007450;28;20468;-77
2022/04/09 08:16:38;;;;;;;14.50;2.90;;;;;;;;;;5008311;28;20037;-78
2022/04/09 08:19:04;;;;;;;11.43;2.95;;;;;;;;;;5007498;28;20381;-77
2022/04/09 08:21:29;;;;;;;16.90;2.97;;;;;;;;;;5007944;28;20029;-77
2022/04/09 08:23:55;;;;;;;12.77;2.83;;;;;;;;;;5005276;28;20034;-76
2022/04/09 08:26:21;;;;;;;13.70;2.80;;;;;;;;;;5007512;28;20030;-77
2022/04/09 08:28:47;;;;;;;11.75;2.63;;;;;;;;;;5007540;28;20034;-81
2022/04/09 08:31:13;;;;;;;10.20;2.97;;;;;;;;;;5004639;28;20022;-82
2022/04/09 08:33:42;;;;;;;9.73;2.95;;;;;;;;;;5000055;28;20033;-80
2022/04/09 08:36:07;;;;;;;14.32;3.17;;;;;;;;;;5000982;28;20025;-79
2022/04/09 08:38:33;;;;;;;11.52;2.38;;;;;;;;;;4999331;28;20022;-77
2022/04/09 08:41:03;;;;;;;12.10;3.30;;;;;;;;;;5003950;28;20025;-82
2022/04/09 08:43:29;;;;;;;10.80;3.50;;;;;;;;;;5020602;28;20428;-79
2022/04/09 08:45:55;;;;;;;16.23;3.45;;;;;;;;;;5002627;28;20054;-73
2022/04/09 08:48:21;;;;;;;10.50;2.60;;;;;;;;;;5004396;28;20125;-79
2022/04/09 08:50:47;;;;;;;6.68;2.28;;;;;;;;;;5001366;28;20022;-78
2022/04/09 08:53:14;;;;;;;12.07;2.58;;;;;;;;;;4998983;28;20029;-76
2022/04/09 08:55:45;;;;;;;7.70;2.42;;;;;;;;;;5003830;28;20049;-78
2022/04/09 08:58:11;;;;;;;10.60;2.50;;;;;;;;;;5000783;28;20022;-75
2022/04/09 09:00:37;;;;;;;8.30;2.50;;;;;;;;;;5003490;28;20034;-76
2022/04/09 09:03:05;;;;;;;7.55;2.20;;;;;;;;;;5004528;28;20034;-76
2022/04/09 09:05:32;;;;;;;6.10;2.00;;;;;;;;;;5001968;28;20077;-79
2022/04/09 09:07:58;;;;;;;13.48;2.70;;;;;;;;;;5007057;28;20064;-79
2022/04/09 09:10:24;;;;;;;14.63;2.13;;;;;;;;;;5010714;28;20477;-80
2022/04/09 09:13:09;;;;;;;10.40;3.00;;;;;;;;;;5021883;28;20083;-79
2022/04/09 09:15:52;;;;;;;7.38;2.00;;;;;;;;;;5015357;28;20048;-81
2022/04/09 09:18:27;;;;;;;8.20;2.45;;;;;;;;;;5000900;28;20046;-79
2022/04/09 09:20:58;;;;;;;8.05;2.28;;;;;;;;;;5002395;28;20041;-78
2022/04/09 09:23:24;;;;;;;8.55;2.63;;;;;;;;;;5013271;28;20573;-80
2022/04/09 09:25:57;;;;;;;8.45;2.28;;;;;;;;;;5013084;28;20052;-78
2022/04/09 09:28:36;;;;;;;10.15;2.95;;;;;;;;;;5005831;28;20040;-79
2022/04/09 09:31:04;;;;;;;7.72;2.20;;;;;;;;;;5015955;28;20432;-80
2022/04/09 09:33:30;;;;;;;17.30;2.10;;;;;;;;;;5007853;28;20045;-78
2022/04/09 09:35:59;;;;;;;5.13;1.88;;;;;;;;;;5017820;28;20472;-79
2022/04/09 09:38:29;;;;;;;4.57;1.95;;;;;;;;;;5004179;28;20022;-78
2022/04/09 09:40:56;;;;;;;7.45;2.40;;;;;;;;;;5003717;28;20088;-81
2022/04/09 09:43:23;;;;;;;7.25;1.90;;;;;;;;;;5004632;28;20026;-78
2022/04/09 09:45:50;;;;;;;9.90;2.20;;;;;;;;;;5004899;28;20040;-80
2022/04/09 09:48:26;;;;;;;17.77;2.05;;;;;;;;;;5005691;28;20488;-79
2022/04/09 09:50:55;;;;;;;4.72;1.88;;;;;;;;;;5003745;28;20087;-79
2022/04/09 09:53:34;;;;;;;7.10;2.45;;;;;;;;;;5001968;28;20080;-77
2022/04/09 09:56:01;;;;;;;7.45;1.80;;;;;;;;;;5004577;28;20026;-79
2022/04/09 09:58:28;;;;;;;7.40;2.00;;;;;;;;;;5005466;28;20440;-80
2022/04/09 10:00:55;;;;;;;11.40;1.98;;;;;;;;;;4998484;28;20469;-77
2022/04/09 10:03:21;;;;;;;10.15;2.05;;;;;;;;;;5000390;28;20026;-77
2022/04/09 10:05:49;;;;;;;6.05;2.03;;;;;;;;;;5007835;28;20022;-76
2022/04/09 10:08:15;;;;;;;5.55;2.00;;;;;;;;;;5007255;28;20128;-77
2022/04/09 10:10:46;;;;;;;8.80;2.20;;;;;;;;;;5002947;28;20026;-77
2022/04/09 10:13:13;;;;;;;7.30;1.65;;;;;;;;;;5006671;28;20022;-76
2022/04/09 10:15:41;;;;;;;8.90;2.00;;;;;;;;;;5004195;28;20482;-82
2022/04/09 10:18:08;;;;;;;7.63;2.20;;;;;;;;;;5005698;28;20511;-78
2022/04/09 10:20:34;;;;;;;8.30;1.85;;;;;;;;;;5002045;28;20037;-80
2022/04/09 10:23:02;;;;;;;5.32;1.80;;;;;;;;;;5005351;28;20236;-81
2022/04/09 10:25:30;;;;;;;5.00;1.92;;;;;;;;;;5002492;28;20127;-77
2022/04/09 10:28:00;;;;;;;7.38;2.05;;;;;;;;;;5003946;28;20092;-79
2022/04/09 10:30:26;;;;;;;8.18;2.00;;;;;;;;;;5003520;28;20026;-76
2022/04/09 10:32:57;;;;;;;6.40;1.83;;;;;;;;;;5002687;28;20080;-77
2022/04/09 10:35:30;;;;;;;9.60;1.67;;;;;;;;;;5001006;28;20442;-78
2022/04/09 10:40:35;;;;;;;7.38;2.08;;;;;;;;;;5001527;28;20047;-81
2022/04/09 10:43:02;;;;;;;5.53;2.05;;;;;;;;;;5003333;28;20029;-77
2022/04/09 10:45:28;;;;;;;9.73;1.90;;;;;;;;;;5003286;28;20025;-77
2022/04/09 10:48:08;;;;;;;5.47;1.73;;;;;;;;;;5003728;28;20091;-75
2022/04/09 10:50:52;;;;;;;3.65;1.63;;;;;;;;;;5001261;28;20120;-75
2022/04/09 10:53:20;;;;;;;5.75;1.75;;;;;;;;;;5006027;28;20040;-75
2022/04/09 10:56:05;;;;;;;8.07;1.90;;;;;;;;;;5000849;28;20030;-76
2022/04/09 10:58:31;;;;;;;8.23;1.90;;;;;;;;;;4995391;28;20033;-75
2022/04/09 11:00:57;;;;;;;6.22;1.70;;;;;;;;;;5005106;28;20595;-76
2022/04/09 11:03:29;;;;;;;4.97;1.48;;;;;;;;;;4999227;28;20113;-73
2022/04/09 11:06:14;;;;;;;6.18;1.58;;;;;;;;;;5002983;28;20029;-73
2022/04/09 11:08:40;;;;;;;4.35;1.40;;;;;;;;;;4996188;28;20045;-76
2022/04/09 11:11:07;;;;;;;5.55;1.17;;;;;;;;;;5002631;28;20022;-74
2022/04/09 11:13:39;;;;;;;3.85;1.30;;;;;;;;;;5002708;28;20164;-77
2022/04/09 11:16:05;;;;;;;4.38;1.42;;;;;;;;;;5004524;28;20022;-73
2022/04/09 11:18:31;;;;;;;7.65;1.70;;;;;;;;;;5005576;28;20029;-73
2022/04/09 11:20:57;;;;;;;4.25;1.30;;;;;;;;;;5005601;28;20030;-74
2022/04/09 11:23:25;;;;;;;9.38;1.65;;;;;;;;;;5002767;28;20456;-74
2022/04/09 11:25:51;;;;;;;6.47;1.50;;;;;;;;;;5000606;28;20029;-75
2022/04/09 11:28:18;;;;;;;3.10;1.15;;;;;;;;;;5010543;28;20032;-74
2022/04/09 11:30:54;;;;;;;4.78;1.30;;;;;;;;;;5004599;28;20358;-73
2022/04/09 11:33:20;;;;;;;4.65;1.60;;;;;;;;;;5004339;28;20040;-72
2022/04/09 11:35:46;;;;;;;6.63;1.40;;;;;;;;;;5007953;28;20014;-74
2022/04/09 11:38:23;;;;;;;3.88;1.27;;;;;;;;;;5004044;28;20404;-74
2022/04/09 11:40:49;;;;;;;2.55;1.20;;;;;;;;;;4994951;28;20468;-74
2022/04/09 11:43:19;;;;;;;3.92;1.30;;;;;;;;;;5000145;28;20026;-76
2022/04/09 11:45:45;;;;;;;3.97;1.05;;;;;;;;;;5001582;28;20069;-75
2022/04/09 11:48:16;;;;;;;3.85;1.60;;;;;;;;;;5009764;28;20030;-74
2022/04/09 11:50:43;;;;;;;5.95;1.55;;;;;;;;;;5004232;28;20041;-75
2022/04/09 11:53:12;;;;;;;4.25;1.20;;;;;;;;;;5003793;28;20512;-75
2022/04/09 11:55:38;;;;;;;3.83;1.33;;;;;;;;;;5001063;28;20045;-75
2022/04/09 11:58:04;;;;;;;5.35;1.15;;;;;;;;;;5002893;28;20112;-77
2022/04/09 12:00:30;;;;;;;5.32;1.25;;;;;;;;;;5004271;28;20026;-75
2022/04/09 12:03:05;;;;;;;5.10;1.00;;;;;;;;;;4998206;28;20029;-77
2022/04/09 12:05:37;;;;;;;2.90;1.40;;;;;;;;;;5007266;28;20116;-74
2022/04/09 12:08:05;;;;;;;4.75;1.00;;;;;;;;;;5000387;28;20132;-78
2022/04/09 12:10:31;;;;;;;3.38;0.80;;;;;;;;;;4996512;28;20103;-75
2022/04/09 12:12:58;;;;;;;3.60;1.45;;;;;;;;;;4998604;28;20088;-74
2022/04/09 12:15:31;;;;;;;2.70;1.08;;;;;;;;;;5003764;28;20030;-74
2022/04/09 12:17:58;;;;;;;1.73;1.00;;;;;;;;;;5003646;28;20033;-75
2022/04/09 12:20:31;;;;;;;3.95;1.10;;;;;;;;;;5009056;28;20053;-75
2022/04/09 12:22:57;;;;;;;2.70;0.82;;;;;;;;;;5007874;28;20038;-73
2022/04/09 12:25:42;;;;;;;3.00;1.08;;;;;;;;;;5002088;28;20097;-75
2022/04/09 12:28:22;;;;;;;2.55;0.93;;;;;;;;;;5007060;28;20673;-73
2022/04/09 12:30:49;;;;;;;4.25;1.17;;;;;;;;;;5007352;28;20030;-74
2022/04/09 12:33:15;;;;;;;4.38;1.23;;;;;;;;;;5013995;28;20526;-73
2022/04/09 12:35:42;;;;;;;5.45;1.70;;;;;;;;;;5009229;28;20034;-74
2022/04/09 12:38:07;;;;;;;3.15;1.08;;;;;;;;;;5010893;28;20018;-73
2022/04/09 12:40:34;;;;;;;9.00;1.52;;;;;;;;;;5004483;28;20038;-74
2022/04/09 12:43:00;;;;;;;4.20;1.33;;;;;;;;;;5007164;28;20397;-75
2022/04/09 12:45:28;;;;;;;9.80;1.02;;;;;;;;;;5000184;28;20040;-75
2022/04/09 12:47:58;;;;;;;6.13;1.00;;;;;;;;;;5000874;28;20026;-75
2022/04/09 12:50:28;;;;;;;2.92;1.05;;;;;;;;;;5003768;28;20037;-75
2022/04/09 12:52:55;;;;;;;1.33;0.80;;;;;;;;;;5006236;28;20060;-77
2022/04/09 12:55:23;;;;;;;1.63;0.98;;;;;;;;;;5007055;28;20137;-76
2022/04/09 12:57:49;;;;;;;5.05;1.00;;;;;;;;;;5004347;28;20022;-75
2022/04/09 13:00:16;;;;;;;4.60;1.10;;;;;;;;;;4999915;28;20059;-77
2022/04/09 13:02:42;;;;;;;6.10;1.20;;;;;;;;;;5002090;28;20559;-74
2022/04/09 13:05:09;;;;;;;2.72;0.93;;;;;;;;;;5002848;28;20033;-73
2022/04/09 13:07:35;;;;;;;4.78;0.93;;;;;;;;;;4999507;28;20022;-73
2022/04/09 13:10:01;;;;;;;1.15;0.55;;;;;;;;;;5004843;28;20257;-73
2022/04/09 13:12:27;;;;;;;0.85;0.52;;;;;;;;;;5003144;28;20014;-79
2022/04/09 13:14:53;;;;;;;0.73;0.50;;;;;;;;;;5003625;28;20014;-73
2022/04/09 13:17:19;;;;;;;1.55;0.60;;;;;;;;;;5006816;28;20041;-74
2022/04/09 13:19:47;;;;;;;0.40;0.40;;;;;;;;;;5012092;28;20119;-73
2022/04/09 13:22:15;;;;;;;2.05;0.60;;;;;;;;;;5002471;28;20109;-73
2022/04/09 13:24:41;;;;;;;0.80;0.50;;;;;;;;;;5013232;28;20021;-74
2022/04/09 13:27:07;;;;;;;2.38;0.90;;;;;;;;;;5003490;28;20246;-74
2022/04/09 13:29:33;;;;;;;5.22;1.10;;;;;;;;;;5011040;28;20171;-73
2022/04/09 13:31:59;;;;;;;1.35;0.68;;;;;;;;;;5001673;28;20525;-74
2022/04/09 13:34:25;;;;;;;1.50;0.60;;;;;;;;;;5005189;28;20022;-73
2022/04/09 13:36:51;;;;;;;2.90;0.55;;;;;;;;;;5009882;28;20033;-73
2022/04/09 13:39:17;;;;;;;0.63;0.52;;;;;;;;;;5009489;28;20091;-73
2022/04/09 13:41:44;;;;;;;1.02;0.50;;;;;;;;;;5016965;28;20447;-74
2022/04/09 13:44:10;;;;;;;2.22;0.70;;;;;;;;;;5007172;28;20070;-73
2022/04/09 13:46:36;;;;;;;1.02;0.77;;;;;;;;;;5009398;28;20033;-74
2022/04/09 13:49:01;;;;;;;1.42;0.80;;;;;;;;;;5004146;28;20026;-73
2022/04/09 13:51:28;;;;;;;1.88;0.70;;;;;;;;;;5005515;28;20382;-74
2022/04/09 13:53:53;;;;;;;2.35;0.80;;;;;;;;;;5009443;28;20397;-74
2022/04/09 13:56:19;;;;;;;2.15;0.70;;;;;;;;;;5004169;28;20018;-75
2022/04/09 13:58:45;;;;;;;1.95;0.68;;;;;;;;;;5013431;28;20049;-74
2022/04/09 14:01:11;;;;;;;3.55;0.80;;;;;;;;;;5005131;28;20024;-73
2022/04/09 14:03:37;;;;;;;2.25;0.80;;;;;;;;;;5001060;28;20440;-85
2022/04/09 14:06:03;;;;;;;2.17;0.93;;;;;;;;;;5004021;28;20018;-73
2022/04/09 14:08:29;;;;;;;4.20;1.13;;;;;;;;;;5005305;28;20053;-74
2022/04/09 14:10:55;;;;;;;2.50;0.90;;;;;;;;;;4999112;28;20033;-76
2022/04/09 14:13:23;;;;;;;3.83;0.77;;;;;;;;;;5003922;28;20029;-74
2022/04/09 14:15:49;;;;;;;4.88;0.90;;;;;;;;;;5004802;28;20050;-76
2022/04/09 14:18:14;;;;;;;1.08;0.63;;;;;;;;;;5004848;28;20511;-74
2022/04/09 14:20:41;;;;;;;6.70;0.77;;;;;;;;;;5005329;28;20038;-73
2022/04/09 14:23:07;;;;;;;1.73;0.60;;;;;;;;;;5008590;28;20053;-73
2022/04/09 14:25:32;;;;;;;1.60;0.93;;;;;;;;;;5016694;28;20061;-72
2022/04/09 14:27:59;;;;;;;0.90;0.60;;;;;;;;;;5010100;28;20034;-73
2022/04/09 14:30:25;;;;;;;1.30;0.43;;;;;;;;;;5000776;28;20029;-72
2022/04/09 14:32:51;;;;;;;3.08;0.60;;;;;;;;;;5004806;28;20029;-73
2022/04/09 14:35:17;;;;;;;2.88;0.80;;;;;;;;;;5008934;28;20080;-72
2022/04/09 14:37:47;;;;;;;0.77;0.60;;;;;;;;;;5007089;28;20022;-74
2022/04/09 14:40:14;;;;;;;0.60;0.60;;;;;;;;;;5006913;28;20033;-72
2022/04/09 14:42:39;;;;;;;3.25;0.70;;;;;;;;;;5005752;28;20366;-71